Logo AVAMET
Benvolgut visitant, si us plau, ingressa Recuperar contrasenya
AVAMET paisatges

Onda centre

Dades diàries. Acumulats / Últims 30 dies disponibles

Data Temperatura (°C) Humitat rel. (%) Pressió rel. (hPa) Vent (km/h) Precipitació
Mínima Mitjana Màxima Amplitud
tèrmica
Mínima Mitjana Màxima Mínima Mitjana Màxima Predom. Mitjana Ràfega
màxima
Total
(mm)
Índex-n
Mínima Mitjana Màxima Mínima Mitjana Màxima n
0 a 1
P0 max
mm 5'
Dades mensuals acumulades fins l'últim dia disponible
04/2020 7,7 9,4 10,8 12,5 15,5 17,4 18,4 10,7 47 76 100 1.008 1.013 1.020   2,4 22,2 43,1
Dades anuals acumulades fins l'últim dia disponible
2020 3,7 9,1 15,5 12,7 8,6 17,5 25,3 21,6 23 68 100 994 1.021 1.034   2,3 53,6 313,5
Últims 30 dies disponibles
04-04-2020 7,7     12,6     18,2 10,5 49 69 89 1.016 1.018 1.020 SE 3,3 22,2 0,0
03-04-2020 9,3     12,8     17,6 8,3 47 74 100 1.012 1.015 1.018 SE 2,5 20,4 0,0
02-04-2020 9,8     11,5     15,5 5,7 64 82 100 1.008 1.011 1.013 SE 1,9 20,4 7,1
01-04-2020 10,8     13,1     18,4 7,6 60 80 100 1.008 1.010 1.012 N 1,7 22,2 36,0 0,67 5,50
31-03-2020 6,0     9,0     12,4 6,4 90 95 100 1.008 1.010 1.013 OSO 1,3 12,9 59,9 0,42 1,40
30-03-2020 6,2     10,0     12,7 6,5 55 76 97 1.010 1.012 1.014 N 1,2 9,3 4,2
29-03-2020 8,5     14,8     22,2 13,7 32 57 82 1.010 1.014 1.019 ESE 2,7 16,6 0,0
28-03-2020 5,5     10,9     17,5 12,0 43 63 83 1.016 1.017 1.019 SSE 2,4 16,6 0,0
27-03-2020 5,5     9,2     13,8 8,3 50 70 89 1.011 1.013 1.016 SSE 2,2 16,6 0,0
26-03-2020 5,3     9,7     15,2 9,9 36 66 96 1.006 1.009 1.012 NE 3,1 27,8 0,0
25-03-2020 6,5     8,7     10,3 3,8 73 87 100 1.013 1.016 1.018 NNO 1,3 14,8 4,2
24-03-2020 9,3     11,3     12,6 3,3 78 89 100 1.016 1.017 1.019 NNE 3,3 20,4 8,9 0,50
23-03-2020 10,6     11,9     13,2 2,6 90 95 100 1.014 1.016 1.018 NNO 1,2 18,5 36,9 0,56 4,10
22-03-2020 10,2     12,2     14,7 4,5 72 86 100 1.010 1.012 1.015 NNO 1,1 12,9 4,6
21-03-2020 8,4     11,8     15,0 6,6 65 80 95 1.010 1.014 1.017 SE 1,6 12,9 0,0
20-03-2020 10,5     12,4     14,6 4,1 73 84 95 1.016 1.018 1.020 SE 1,4 18,5 0,0
19-03-2020 8,7     12,4     17,2 8,5 59 77 95 1.020 1.022 1.025 SE 2,5 18,5 0,0
18-03-2020 10,1     12,7     17,0 6,9 52 74 96 1.024 1.026 1.028 S 1,9 16,6 0,0
17-03-2020 11,5     13,1     14,3 2,8 89 95 100 1.018 1.024 1.029 NNE 2,0 18,5 32,3 0,59 4,70
16-03-2020 11,2     12,3     13,5 2,3 85 93 100 1.010 1.013 1.019 N 1,3 16,6 19,1 0,36 1,00
15-03-2020 9,8     13,5     18,1 8,3 61 78 95 1.013 1.017 1.019 SE 3,1 24,1 0,0
14-03-2020 11,2     14,3     18,9 7,7 49 71 93 1.017 1.019 1.021 SSE 2,4 18,5 0,0
13-03-2020 11,5     15,3     19,2 7,7 52 72 91 1.017 1.019 1.019 SE 2,6 20,4 0,0
12-03-2020 12,6     16,5     21,7 9,1 55 72 88 1.016 1.019 1.021 S 2,4 14,8 0,0
11-03-2020 13,3     17,6     23,3 10,0 40 61 82 1.020 1.022 1.023 SSE 2,9 18,5 0,0
10-03-2020 11,2     14,4     17,3 6,1 36 60 84 1.021 1.023 1.025 SE 1,5 11,1 0,0
09-03-2020 13,1     16,4     20,5 7,4 31 45 58 1.018 1.020 1.022 E 3,0 18,5 0,0
08-03-2020 9,5     14,3     19,7 10,2 34 51 68 1.020 1.022 1.024 SE 2,5 16,6 0,0
07-03-2020 10,0     13,4     19,4 9,4 33 47 60 1.018 1.020 1.023 S 3,2 20,4 0,0
06-03-2020 11,5     14,1     17,5 6,0 26 36 46 1.009 1.013 1.019 ESE 6,1 33,3 0,0
Últims 13 mesos disponibles
03/2020 5,3 10,0 15,5 13,6 10,3 17,5 25,2 19,9 36 68 95 1.003 1.016 1.026 SE 2,8 53,6 170,1
02/2020 6,1 10,0 15,4 14,1 13,7 19,7 25,3 19,2 41 65 97 1.011 1.024 1.031 SSE 2,1 24,1 0,0
01/2020 3,7 7,3 13,5 10,6 8,6 15,5 21,7 18,0 56 71 92 1.017 1.024 1.031 SSE 1,9 33,3 100,3
12/2019 4,7 10,2 16,5 13,4 11,8 17,4 23,7 19,0 41 67 99 1.000 1.018 1.032 SSE 2,5 37,0 109,2
11/2019 5,2 11,6 18,5 15,1 14,7 19,1 27,5 22,3 38 51 79 996 1.010 1.018 SSE 3,6 31,4 1,3
10/2019 10,1 15,7 19,3 19,4 14,7 24,1 29,0 18,9 44 66 88 1.006 1.016 1.021 SE 2,6 24,1 19,7
09/2019 14,8 19,0 22,7 22,8 21,6 27,6 31,8 17,0 52 70 80 1.009 1.018 1.026 SE 2,6 31,4 65,9
08/2019 17,9 21,2 25,5 25,6 24,9 30,6 36,1 18,2 49 68 84 1.010 1.016 1.020 SE 3,1 29,6 74,4
07/2019 20,1 21,7 24,6 26,5 27,3 31,4 35,5 15,4 31 57 73 1.005 1.014 1.021 SE 3,8 29,6 19,9
06/2019 11,0 17,5 23,0 22,5 21,6 27,7 38,5 27,5 30 55 72 1.008 1.015 1.022 SE 3,8 31,4 0,0
05/2019 9,6 13,6 17,4 17,9 17,9 22,9 29,2 19,6 48 61 85 1.004 1.015 1.024 SE 3,3 38,9 26,3
04/2019 7,1 11,1 14,7 14,9 14,9 19,5 27,6 20,5 30 60 93 998 1.013 1.025 S 3,8 50,0 112,2
03/2019 6,6 9,8 15,5 14,4 11,6 20,2 27,2 20,6 29 49 92 1.010 1.023 1.030 SSE 3,7 30,5 25,8
Tots els anys disponibles
2019 3,1 9,5 20,1 18,0 20,7 29,4 38,5 35,4 49 60 70 1.010 1.017 1.025 SE 3,0 50,0 455,3
2018 1,4 14,0 26,1 18,3 8,2 22,7 35,7 34,3 26 61 100 993 1.016 1.035 0,0 41,0 752,5
2017 0,0 13,7 23,7 18,2 7,9 22,8 36,7 36,7 25 59 93 995 1.019 1.036 0,0 44,0 433,7
2016 2,8 13,9 26,0 18,2 10,3 22,6 35,8 33,0 41 57 69 1.014 1.017 1.027 76,0 557,3
2015 1,0 13,9 25,0 17,2 8,0 22,9 40,6 39,6 17 53 87 1.004 1.022 1.037 43,0 747,6
2014 2,3 14,3 24,7 19,1 12,0 24,0 34,9 32,6 55,0 351,2
2013 417,4
2012 327,8
2011 703,6
Temperatura (°C)
Humitat relativa (%)
Velocitat del vent i ràfega màxima (km/h)
Direcció del vent (°)
Pressió (hPa)
Precipitació (mm)
Nota sobre les dades: s'avisa a l'usuari de la provisionalitat i no oficialitat d'aquestes dades
Logo AVAMET blanc
Web allotjada a Sollutia
Llicència de Creative CommonsLa web d'AVAMET i els seus continguts estan subjectes a una llicència de
Reconeixement - No Comercial - Compartir igual
Últimes estacions:  Altea - Com. Regants (Soci), Almoines (Inforatge), Beniparrell (Inforatge), Albal (Inforatge), Almussafes - Parc Industrial (Inforatge), La Vilavella (Soci), la Serratella (soci) - - -